sensor_id;sensor_type;location;lat;lon;timestamp;P1;durP1;ratioP1;P2;durP2;ratioP2
49514;SDS011;35415;47.870;16.058;2024-03-07T00:01:00;22.05;;;11.05;;
49514;SDS011;35415;47.870;16.058;2024-03-07T00:03:28;22.33;;;11.48;;
49514;SDS011;35415;47.870;16.058;2024-03-07T00:05:56;16.80;;;9.43;;
49514;SDS011;35415;47.870;16.058;2024-03-07T00:08:23;19.55;;;11.52;;
49514;SDS011;35415;47.870;16.058;2024-03-07T00:10:52;20.95;;;11.20;;
49514;SDS011;35415;47.870;16.058;2024-03-07T00:13:20;18.23;;;10.25;;
49514;SDS011;35415;47.870;16.058;2024-03-07T00:15:48;18.05;;;10.43;;
49514;SDS011;35415;47.870;16.058;2024-03-07T00:18:15;18.40;;;10.82;;
49514;SDS011;35415;47.870;16.058;2024-03-07T00:20:43;18.35;;;10.40;;
49514;SDS011;35415;47.870;16.058;2024-03-07T00:23:10;21.38;;;10.20;;
49514;SDS011;35415;47.870;16.058;2024-03-07T00:25:37;17.92;;;10.02;;
49514;SDS011;35415;47.870;16.058;2024-03-07T00:28:06;18.92;;;10.57;;
49514;SDS011;35415;47.870;16.058;2024-03-07T00:30:33;20.20;;;9.88;;
49514;SDS011;35415;47.870;16.058;2024-03-07T00:33:01;17.90;;;10.95;;
49514;SDS011;35415;47.870;16.058;2024-03-07T00:35:28;18.70;;;10.63;;
49514;SDS011;35415;47.870;16.058;2024-03-07T00:37:55;19.33;;;10.30;;
49514;SDS011;35415;47.870;16.058;2024-03-07T00:40:23;19.67;;;10.65;;
49514;SDS011;35415;47.870;16.058;2024-03-07T00:42:50;14.48;;;8.90;;
49514;SDS011;35415;47.870;16.058;2024-03-07T00:45:19;18.42;;;10.15;;
49514;SDS011;35415;47.870;16.058;2024-03-07T00:47:47;15.25;;;9.07;;
49514;SDS011;35415;47.870;16.058;2024-03-07T00:50:15;17.77;;;9.50;;
49514;SDS011;35415;47.870;16.058;2024-03-07T00:52:42;17.17;;;8.80;;
49514;SDS011;35415;47.870;16.058;2024-03-07T00:55:10;16.00;;;9.20;;
49514;SDS011;35415;47.870;16.058;2024-03-07T00:57:37;13.57;;;8.57;;
49514;SDS011;35415;47.870;16.058;2024-03-07T01:00:05;17.38;;;8.57;;
49514;SDS011;35415;47.870;16.058;2024-03-07T01:02:38;13.43;;;8.05;;
49514;SDS011;35415;47.870;16.058;2024-03-07T01:05:08;14.20;;;8.48;;
49514;SDS011;35415;47.870;16.058;2024-03-07T01:07:38;15.27;;;7.78;;
49514;SDS011;35415;47.870;16.058;2024-03-07T01:10:06;12.25;;;8.27;;
49514;SDS011;35415;47.870;16.058;2024-03-07T01:12:34;13.77;;;8.65;;
49514;SDS011;35415;47.870;16.058;2024-03-07T01:15:02;15.95;;;8.73;;
49514;SDS011;35415;47.870;16.058;2024-03-07T01:17:31;13.75;;;7.90;;
49514;SDS011;35415;47.870;16.058;2024-03-07T01:20:00;13.10;;;7.93;;
49514;SDS011;35415;47.870;16.058;2024-03-07T01:22:28;14.38;;;8.13;;
49514;SDS011;35415;47.870;16.058;2024-03-07T01:24:55;15.30;;;8.02;;
49514;SDS011;35415;47.870;16.058;2024-03-07T01:27:22;13.90;;;7.75;;
49514;SDS011;35415;47.870;16.058;2024-03-07T01:29:50;14.25;;;8.23;;
49514;SDS011;35415;47.870;16.058;2024-03-07T01:32:18;12.10;;;7.70;;
49514;SDS011;35415;47.870;16.058;2024-03-07T01:34:46;12.13;;;6.88;;
49514;SDS011;35415;47.870;16.058;2024-03-07T01:37:14;9.85;;;6.68;;
49514;SDS011;35415;47.870;16.058;2024-03-07T01:39:42;11.90;;;6.68;;
49514;SDS011;35415;47.870;16.058;2024-03-07T01:42:09;11.35;;;7.32;;
49514;SDS011;35415;47.870;16.058;2024-03-07T01:44:36;9.82;;;6.55;;
49514;SDS011;35415;47.870;16.058;2024-03-07T01:47:05;10.02;;;7.32;;
49514;SDS011;35415;47.870;16.058;2024-03-07T01:49:32;9.48;;;6.40;;
49514;SDS011;35415;47.870;16.058;2024-03-07T01:52:00;10.27;;;6.72;;
49514;SDS011;35415;47.870;16.058;2024-03-07T01:54:31;10.30;;;6.57;;
49514;SDS011;35415;47.870;16.058;2024-03-07T01:57:00;11.77;;;7.68;;
49514;SDS011;35415;47.870;16.058;2024-03-07T01:59:28;10.57;;;6.38;;
49514;SDS011;35415;47.870;16.058;2024-03-07T02:01:57;11.60;;;7.15;;
49514;SDS011;35415;47.870;16.058;2024-03-07T02:04:27;11.48;;;7.35;;
49514;SDS011;35415;47.870;16.058;2024-03-07T02:06:54;10.65;;;6.22;;
49514;SDS011;35415;47.870;16.058;2024-03-07T02:09:23;13.75;;;8.15;;
49514;SDS011;35415;47.870;16.058;2024-03-07T02:11:52;13.20;;;6.75;;
49514;SDS011;35415;47.870;16.058;2024-03-07T02:14:19;13.23;;;8.20;;
49514;SDS011;35415;47.870;16.058;2024-03-07T02:16:46;15.07;;;9.35;;
49514;SDS011;35415;47.870;16.058;2024-03-07T02:19:14;16.42;;;9.10;;
49514;SDS011;35415;47.870;16.058;2024-03-07T02:21:46;16.23;;;9.63;;
49514;SDS011;35415;47.870;16.058;2024-03-07T02:24:13;14.35;;;9.10;;
49514;SDS011;35415;47.870;16.058;2024-03-07T02:26:41;15.63;;;9.27;;
49514;SDS011;35415;47.870;16.058;2024-03-07T02:29:08;20.17;;;10.77;;
49514;SDS011;35415;47.870;16.058;2024-03-07T02:31:36;13.75;;;8.07;;
49514;SDS011;35415;47.870;16.058;2024-03-07T02:34:06;18.08;;;10.18;;
49514;SDS011;35415;47.870;16.058;2024-03-07T02:36:34;19.67;;;11.05;;
49514;SDS011;35415;47.870;16.058;2024-03-07T02:39:02;18.42;;;10.50;;
49514;SDS011;35415;47.870;16.058;2024-03-07T02:41:31;16.88;;;10.13;;
49514;SDS011;35415;47.870;16.058;2024-03-07T02:44:00;18.17;;;10.65;;
49514;SDS011;35415;47.870;16.058;2024-03-07T02:46:28;17.45;;;9.63;;
49514;SDS011;35415;47.870;16.058;2024-03-07T02:48:57;16.40;;;9.45;;
49514;SDS011;35415;47.870;16.058;2024-03-07T02:51:26;16.95;;;9.55;;
49514;SDS011;35415;47.870;16.058;2024-03-07T02:53:53;17.40;;;9.68;;
49514;SDS011;35415;47.870;16.058;2024-03-07T02:56:22;17.88;;;8.27;;
49514;SDS011;35415;47.870;16.058;2024-03-07T02:58:49;14.68;;;8.80;;
49514;SDS011;35415;47.870;16.058;2024-03-07T03:01:16;14.57;;;8.65;;
49514;SDS011;35415;47.870;16.058;2024-03-07T03:03:43;14.70;;;8.85;;
49514;SDS011;35415;47.870;16.058;2024-03-07T03:06:11;14.85;;;8.52;;
49514;SDS011;35415;47.870;16.058;2024-03-07T03:08:38;16.02;;;8.80;;
49514;SDS011;35415;47.870;16.058;2024-03-07T03:11:05;12.40;;;8.13;;
49514;SDS011;35415;47.870;16.058;2024-03-07T03:13:35;13.93;;;7.95;;
49514;SDS011;35415;47.870;16.058;2024-03-07T03:16:04;16.90;;;8.27;;
49514;SDS011;35415;47.870;16.058;2024-03-07T03:18:32;12.50;;;8.10;;
49514;SDS011;35415;47.870;16.058;2024-03-07T03:20:59;14.73;;;7.68;;
49514;SDS011;35415;47.870;16.058;2024-03-07T03:23:27;12.20;;;7.13;;
49514;SDS011;35415;47.870;16.058;2024-03-07T03:25:54;13.02;;;6.75;;
49514;SDS011;35415;47.870;16.058;2024-03-07T03:28:22;11.32;;;6.93;;
49514;SDS011;35415;47.870;16.058;2024-03-07T03:30:51;12.20;;;7.38;;
49514;SDS011;35415;47.870;16.058;2024-03-07T03:33:18;12.77;;;7.00;;
49514;SDS011;35415;47.870;16.058;2024-03-07T03:35:46;12.73;;;6.50;;
49514;SDS011;35415;47.870;16.058;2024-03-07T03:38:13;12.48;;;6.90;;
49514;SDS011;35415;47.870;16.058;2024-03-07T03:40:41;9.93;;;6.65;;
49514;SDS011;35415;47.870;16.058;2024-03-07T03:43:08;10.90;;;6.35;;
49514;SDS011;35415;47.870;16.058;2024-03-07T03:45:35;12.50;;;6.38;;
49514;SDS011;35415;47.870;16.058;2024-03-07T03:48:04;10.57;;;7.00;;
49514;SDS011;35415;47.870;16.058;2024-03-07T03:50:32;12.00;;;6.70;;
49514;SDS011;35415;47.870;16.058;2024-03-07T03:53:00;12.60;;;7.20;;
49514;SDS011;35415;47.870;16.058;2024-03-07T03:55:27;11.55;;;7.22;;
49514;SDS011;35415;47.870;16.058;2024-03-07T03:57:54;13.30;;;7.38;;
49514;SDS011;35415;47.870;16.058;2024-03-07T04:00:21;10.25;;;6.22;;
49514;SDS011;35415;47.870;16.058;2024-03-07T04:02:49;13.18;;;7.22;;
49514;SDS011;35415;47.870;16.058;2024-03-07T04:05:18;12.48;;;7.18;;
49514;SDS011;35415;47.870;16.058;2024-03-07T04:07:46;14.38;;;7.82;;
49514;SDS011;35415;47.870;16.058;2024-03-07T04:10:14;12.90;;;7.57;;
49514;SDS011;35415;47.870;16.058;2024-03-07T04:12:43;14.15;;;9.00;;
49514;SDS011;35415;47.870;16.058;2024-03-07T04:15:11;13.90;;;8.20;;
49514;SDS011;35415;47.870;16.058;2024-03-07T04:17:41;13.55;;;8.07;;
49514;SDS011;35415;47.870;16.058;2024-03-07T04:20:10;12.27;;;7.22;;
49514;SDS011;35415;47.870;16.058;2024-03-07T04:22:40;13.55;;;8.02;;
49514;SDS011;35415;47.870;16.058;2024-03-07T04:25:07;13.88;;;7.97;;
49514;SDS011;35415;47.870;16.058;2024-03-07T04:27:35;12.40;;;7.85;;
49514;SDS011;35415;47.870;16.058;2024-03-07T04:30:05;12.93;;;7.78;;
49514;SDS011;35415;47.870;16.058;2024-03-07T04:32:36;14.50;;;8.10;;
49514;SDS011;35415;47.870;16.058;2024-03-07T04:35:04;13.68;;;8.50;;
49514;SDS011;35415;47.870;16.058;2024-03-07T04:37:35;15.02;;;7.97;;
49514;SDS011;35415;47.870;16.058;2024-03-07T04:40:05;11.85;;;7.47;;
49514;SDS011;35415;47.870;16.058;2024-03-07T04:42:40;13.93;;;7.25;;
49514;SDS011;35415;47.870;16.058;2024-03-07T04:45:09;13.57;;;8.00;;
49514;SDS011;35415;47.870;16.058;2024-03-07T04:47:38;13.45;;;7.35;;
49514;SDS011;35415;47.870;16.058;2024-03-07T04:50:06;13.15;;;6.88;;
49514;SDS011;35415;47.870;16.058;2024-03-07T04:52:35;14.05;;;8.02;;
49514;SDS011;35415;47.870;16.058;2024-03-07T04:55:05;10.65;;;7.05;;
49514;SDS011;35415;47.870;16.058;2024-03-07T04:57:35;13.15;;;7.43;;
49514;SDS011;35415;47.870;16.058;2024-03-07T05:00:04;13.18;;;7.45;;
49514;SDS011;35415;47.870;16.058;2024-03-07T05:02:38;12.63;;;7.20;;
49514;SDS011;35415;47.870;16.058;2024-03-07T05:05:06;11.57;;;7.35;;
49514;SDS011;35415;47.870;16.058;2024-03-07T05:07:33;15.25;;;7.50;;
49514;SDS011;35415;47.870;16.058;2024-03-07T05:10:01;10.98;;;6.97;;
49514;SDS011;35415;47.870;16.058;2024-03-07T05:12:31;12.15;;;7.20;;
49514;SDS011;35415;47.870;16.058;2024-03-07T05:14:58;14.18;;;7.53;;
49514;SDS011;35415;47.870;16.058;2024-03-07T05:17:25;11.57;;;6.40;;
49514;SDS011;35415;47.870;16.058;2024-03-07T05:19:54;17.80;;;7.60;;
49514;SDS011;35415;47.870;16.058;2024-03-07T05:22:21;12.07;;;6.70;;
49514;SDS011;35415;47.870;16.058;2024-03-07T05:24:50;13.90;;;7.43;;
49514;SDS011;35415;47.870;16.058;2024-03-07T05:27:17;12.05;;;7.53;;
49514;SDS011;35415;47.870;16.058;2024-03-07T05:29:46;10.05;;;6.43;;
49514;SDS011;35415;47.870;16.058;2024-03-07T05:32:20;12.68;;;6.82;;
49514;SDS011;35415;47.870;16.058;2024-03-07T05:34:48;12.13;;;7.15;;
49514;SDS011;35415;47.870;16.058;2024-03-07T05:37:15;11.75;;;7.50;;
49514;SDS011;35415;47.870;16.058;2024-03-07T05:39:42;12.10;;;7.25;;
49514;SDS011;35415;47.870;16.058;2024-03-07T05:42:10;9.82;;;5.97;;
49514;SDS011;35415;47.870;16.058;2024-03-07T05:44:39;11.88;;;6.85;;
49514;SDS011;35415;47.870;16.058;2024-03-07T05:47:08;14.40;;;7.55;;
49514;SDS011;35415;47.870;16.058;2024-03-07T05:49:38;11.63;;;6.35;;
49514;SDS011;35415;47.870;16.058;2024-03-07T05:52:06;11.55;;;6.40;;
49514;SDS011;35415;47.870;16.058;2024-03-07T05:54:33;13.85;;;7.25;;
49514;SDS011;35415;47.870;16.058;2024-03-07T05:57:01;12.73;;;7.65;;
49514;SDS011;35415;47.870;16.058;2024-03-07T05:59:31;9.95;;;6.78;;
49514;SDS011;35415;47.870;16.058;2024-03-07T06:01:59;12.05;;;6.93;;
49514;SDS011;35415;47.870;16.058;2024-03-07T06:04:27;14.00;;;7.38;;
49514;SDS011;35415;47.870;16.058;2024-03-07T06:06:55;12.70;;;7.15;;
49514;SDS011;35415;47.870;16.058;2024-03-07T06:09:22;12.23;;;7.03;;
49514;SDS011;35415;47.870;16.058;2024-03-07T06:11:49;11.40;;;6.72;;
49514;SDS011;35415;47.870;16.058;2024-03-07T06:14:16;14.48;;;7.30;;
49514;SDS011;35415;47.870;16.058;2024-03-07T06:16:45;10.90;;;6.85;;
49514;SDS011;35415;47.870;16.058;2024-03-07T06:19:12;14.15;;;7.20;;
49514;SDS011;35415;47.870;16.058;2024-03-07T06:21:41;11.07;;;6.85;;
49514;SDS011;35415;47.870;16.058;2024-03-07T06:24:08;12.48;;;7.70;;
49514;SDS011;35415;47.870;16.058;2024-03-07T06:26:37;15.00;;;7.82;;
49514;SDS011;35415;47.870;16.058;2024-03-07T06:29:13;13.60;;;7.25;;
49514;SDS011;35415;47.870;16.058;2024-03-07T06:31:41;12.73;;;7.53;;
49514;SDS011;35415;47.870;16.058;2024-03-07T06:34:09;13.18;;;7.15;;
49514;SDS011;35415;47.870;16.058;2024-03-07T06:36:36;12.77;;;7.10;;
49514;SDS011;35415;47.870;16.058;2024-03-07T06:39:05;11.55;;;7.03;;
49514;SDS011;35415;47.870;16.058;2024-03-07T06:41:32;12.80;;;7.25;;
49514;SDS011;35415;47.870;16.058;2024-03-07T06:44:00;12.48;;;7.38;;
49514;SDS011;35415;47.870;16.058;2024-03-07T06:46:27;10.95;;;6.47;;
49514;SDS011;35415;47.870;16.058;2024-03-07T06:48:54;14.35;;;7.25;;
49514;SDS011;35415;47.870;16.058;2024-03-07T06:51:22;12.32;;;7.60;;
49514;SDS011;35415;47.870;16.058;2024-03-07T06:53:50;12.63;;;6.88;;
49514;SDS011;35415;47.870;16.058;2024-03-07T06:56:18;12.52;;;6.25;;
49514;SDS011;35415;47.870;16.058;2024-03-07T06:58:47;12.20;;;6.70;;
49514;SDS011;35415;47.870;16.058;2024-03-07T07:01:14;10.57;;;6.43;;
49514;SDS011;35415;47.870;16.058;2024-03-07T07:03:43;13.35;;;7.35;;
49514;SDS011;35415;47.870;16.058;2024-03-07T07:06:12;11.25;;;7.15;;
49514;SDS011;35415;47.870;16.058;2024-03-07T07:08:40;11.68;;;6.75;;
49514;SDS011;35415;47.870;16.058;2024-03-07T07:11:07;14.63;;;7.60;;
49514;SDS011;35415;47.870;16.058;2024-03-07T07:13:37;11.43;;;6.70;;
49514;SDS011;35415;47.870;16.058;2024-03-07T07:16:06;12.57;;;7.10;;
49514;SDS011;35415;47.870;16.058;2024-03-07T07:18:33;12.00;;;7.05;;
49514;SDS011;35415;47.870;16.058;2024-03-07T07:21:01;10.90;;;6.40;;
49514;SDS011;35415;47.870;16.058;2024-03-07T07:23:28;12.40;;;6.53;;
49514;SDS011;35415;47.870;16.058;2024-03-07T07:25:55;10.60;;;6.28;;
49514;SDS011;35415;47.870;16.058;2024-03-07T07:28:23;9.90;;;5.78;;
49514;SDS011;35415;47.870;16.058;2024-03-07T07:30:51;11.15;;;5.80;;
49514;SDS011;35415;47.870;16.058;2024-03-07T07:33:19;9.77;;;5.88;;
49514;SDS011;35415;47.870;16.058;2024-03-07T07:35:46;10.93;;;6.43;;
49514;SDS011;35415;47.870;16.058;2024-03-07T07:38:13;12.45;;;6.88;;
49514;SDS011;35415;47.870;16.058;2024-03-07T07:40:41;11.65;;;6.38;;
49514;SDS011;35415;47.870;16.058;2024-03-07T07:43:10;11.15;;;6.30;;
49514;SDS011;35415;47.870;16.058;2024-03-07T07:45:58;10.90;;;6.10;;
49514;SDS011;35415;47.870;16.058;2024-03-07T07:48:26;11.45;;;6.85;;
49514;SDS011;35415;47.870;16.058;2024-03-07T07:50:53;10.85;;;6.72;;
49514;SDS011;35415;47.870;16.058;2024-03-07T07:53:20;12.13;;;6.50;;
49514;SDS011;35415;47.870;16.058;2024-03-07T07:55:48;11.63;;;6.93;;
49514;SDS011;35415;47.870;16.058;2024-03-07T07:58:16;11.63;;;6.63;;
49514;SDS011;35415;47.870;16.058;2024-03-07T08:00:43;14.10;;;7.15;;
49514;SDS011;35415;47.870;16.058;2024-03-07T08:03:11;10.38;;;5.57;;
49514;SDS011;35415;47.870;16.058;2024-03-07T08:05:40;11.48;;;6.50;;
49514;SDS011;35415;47.870;16.058;2024-03-07T08:08:08;10.82;;;6.65;;
49514;SDS011;35415;47.870;16.058;2024-03-07T08:10:38;9.68;;;5.88;;
49514;SDS011;35415;47.870;16.058;2024-03-07T08:13:06;14.50;;;6.90;;
49514;SDS011;35415;47.870;16.058;2024-03-07T08:15:34;10.63;;;6.57;;
49514;SDS011;35415;47.870;16.058;2024-03-07T08:18:01;10.75;;;6.47;;
49514;SDS011;35415;47.870;16.058;2024-03-07T08:20:35;10.85;;;6.57;;
49514;SDS011;35415;47.870;16.058;2024-03-07T08:23:02;10.40;;;6.60;;
49514;SDS011;35415;47.870;16.058;2024-03-07T08:25:30;12.98;;;7.15;;
49514;SDS011;35415;47.870;16.058;2024-03-07T08:27:57;10.85;;;6.78;;
49514;SDS011;35415;47.870;16.058;2024-03-07T08:30:25;9.35;;;6.30;;
49514;SDS011;35415;47.870;16.058;2024-03-07T08:32:54;13.35;;;6.68;;
49514;SDS011;35415;47.870;16.058;2024-03-07T08:35:22;9.27;;;6.00;;
49514;SDS011;35415;47.870;16.058;2024-03-07T08:37:51;10.48;;;6.53;;
49514;SDS011;35415;47.870;16.058;2024-03-07T08:40:23;10.77;;;6.68;;
49514;SDS011;35415;47.870;16.058;2024-03-07T08:42:51;13.82;;;7.47;;
49514;SDS011;35415;47.870;16.058;2024-03-07T08:45:19;10.98;;;6.78;;
49514;SDS011;35415;47.870;16.058;2024-03-07T08:47:48;11.10;;;6.32;;
49514;SDS011;35415;47.870;16.058;2024-03-07T08:50:17;11.13;;;7.05;;
49514;SDS011;35415;47.870;16.058;2024-03-07T08:52:58;15.88;;;7.35;;
49514;SDS011;35415;47.870;16.058;2024-03-07T08:55:27;12.90;;;7.00;;
49514;SDS011;35415;47.870;16.058;2024-03-07T08:57:54;9.07;;;5.93;;
49514;SDS011;35415;47.870;16.058;2024-03-07T09:00:22;15.68;;;7.18;;
49514;SDS011;35415;47.870;16.058;2024-03-07T09:02:50;10.73;;;6.35;;
49514;SDS011;35415;47.870;16.058;2024-03-07T09:05:19;12.63;;;6.93;;
49514;SDS011;35415;47.870;16.058;2024-03-07T09:07:47;10.23;;;5.55;;
49514;SDS011;35415;47.870;16.058;2024-03-07T09:10:16;11.65;;;6.80;;
49514;SDS011;35415;47.870;16.058;2024-03-07T09:12:44;12.35;;;6.18;;
49514;SDS011;35415;47.870;16.058;2024-03-07T09:15:14;12.57;;;6.93;;
49514;SDS011;35415;47.870;16.058;2024-03-07T09:17:42;12.63;;;6.47;;
49514;SDS011;35415;47.870;16.058;2024-03-07T09:20:10;12.55;;;6.55;;
49514;SDS011;35415;47.870;16.058;2024-03-07T09:22:40;11.25;;;6.53;;
49514;SDS011;35415;47.870;16.058;2024-03-07T09:25:08;11.32;;;6.50;;
49514;SDS011;35415;47.870;16.058;2024-03-07T09:27:39;10.50;;;6.25;;
49514;SDS011;35415;47.870;16.058;2024-03-07T09:30:07;9.82;;;5.95;;
49514;SDS011;35415;47.870;16.058;2024-03-07T09:32:37;19.42;;;8.00;;
49514;SDS011;35415;47.870;16.058;2024-03-07T09:35:06;11.10;;;6.25;;
49514;SDS011;35415;47.870;16.058;2024-03-07T09:37:37;9.20;;;5.50;;
49514;SDS011;35415;47.870;16.058;2024-03-07T09:40:07;9.98;;;6.07;;
49514;SDS011;35415;47.870;16.058;2024-03-07T09:42:37;10.63;;;5.85;;
49514;SDS011;35415;47.870;16.058;2024-03-07T09:45:13;9.48;;;6.00;;
49514;SDS011;35415;47.870;16.058;2024-03-07T09:47:42;11.43;;;5.82;;
49514;SDS011;35415;47.870;16.058;2024-03-07T09:50:12;8.50;;;5.32;;
49514;SDS011;35415;47.870;16.058;2024-03-07T09:52:40;8.82;;;5.47;;
49514;SDS011;35415;47.870;16.058;2024-03-07T09:55:10;9.80;;;5.85;;
49514;SDS011;35415;47.870;16.058;2024-03-07T09:57:38;9.13;;;6.30;;
49514;SDS011;35415;47.870;16.058;2024-03-07T10:00:10;9.80;;;6.10;;
49514;SDS011;35415;47.870;16.058;2024-03-07T10:02:49;9.38;;;5.60;;
49514;SDS011;35415;47.870;16.058;2024-03-07T10:05:19;10.57;;;6.40;;
49514;SDS011;35415;47.870;16.058;2024-03-07T10:07:49;10.98;;;5.60;;
49514;SDS011;35415;47.870;16.058;2024-03-07T10:10:17;7.70;;;4.95;;
49514;SDS011;35415;47.870;16.058;2024-03-07T10:12:45;9.63;;;6.13;;
49514;SDS011;35415;47.870;16.058;2024-03-07T10:15:14;10.15;;;6.22;;
49514;SDS011;35415;47.870;16.058;2024-03-07T10:17:44;12.13;;;5.70;;
49514;SDS011;35415;47.870;16.058;2024-03-07T10:20:12;11.57;;;5.15;;
49514;SDS011;35415;47.870;16.058;2024-03-07T10:22:40;10.27;;;5.32;;
49514;SDS011;35415;47.870;16.058;2024-03-07T10:25:08;8.07;;;5.15;;
49514;SDS011;35415;47.870;16.058;2024-03-07T10:27:36;10.98;;;4.82;;
49514;SDS011;35415;47.870;16.058;2024-03-07T10:30:05;8.32;;;5.35;;
49514;SDS011;35415;47.870;16.058;2024-03-07T10:32:35;8.18;;;5.22;;
49514;SDS011;35415;47.870;16.058;2024-03-07T10:35:03;6.97;;;4.70;;
49514;SDS011;35415;47.870;16.058;2024-03-07T10:37:34;6.93;;;4.82;;
49514;SDS011;35415;47.870;16.058;2024-03-07T10:40:02;8.23;;;4.88;;
49514;SDS011;35415;47.870;16.058;2024-03-07T10:42:41;7.57;;;3.95;;
49514;SDS011;35415;47.870;16.058;2024-03-07T10:45:17;9.15;;;5.13;;
49514;SDS011;35415;47.870;16.058;2024-03-07T10:47:51;12.00;;;5.07;;
49514;SDS011;35415;47.870;16.058;2024-03-07T10:50:24;7.53;;;4.97;;
49514;SDS011;35415;47.870;16.058;2024-03-07T10:53:07;9.25;;;5.28;;
49514;SDS011;35415;47.870;16.058;2024-03-07T10:55:40;9.40;;;5.45;;
49514;SDS011;35415;47.870;16.058;2024-03-07T10:58:19;9.07;;;4.95;;
49514;SDS011;35415;47.870;16.058;2024-03-07T11:00:54;9.63;;;5.53;;
49514;SDS011;35415;47.870;16.058;2024-03-07T11:03:26;8.98;;;6.00;;
49514;SDS011;35415;47.870;16.058;2024-03-07T11:05:54;7.68;;;5.05;;
49514;SDS011;35415;47.870;16.058;2024-03-07T11:08:22;7.60;;;4.93;;
49514;SDS011;35415;47.870;16.058;2024-03-07T11:10:51;8.65;;;5.50;;
49514;SDS011;35415;47.870;16.058;2024-03-07T11:13:18;7.30;;;4.68;;
49514;SDS011;35415;47.870;16.058;2024-03-07T11:15:46;9.88;;;5.57;;
49514;SDS011;35415;47.870;16.058;2024-03-07T11:18:22;7.75;;;4.30;;
49514;SDS011;35415;47.870;16.058;2024-03-07T11:20:52;6.63;;;4.07;;
49514;SDS011;35415;47.870;16.058;2024-03-07T11:23:25;6.35;;;4.22;;
49514;SDS011;35415;47.870;16.058;2024-03-07T11:25:54;7.97;;;4.88;;
49514;SDS011;35415;47.870;16.058;2024-03-07T11:28:28;6.35;;;4.35;;
49514;SDS011;35415;47.870;16.058;2024-03-07T11:33:39;7.45;;;4.50;;
49514;SDS011;35415;47.870;16.058;2024-03-07T11:36:10;6.63;;;4.43;;
49514;SDS011;35415;47.870;16.058;2024-03-07T11:38:38;7.80;;;4.70;;
49514;SDS011;35415;47.870;16.058;2024-03-07T11:41:10;6.32;;;3.90;;
49514;SDS011;35415;47.870;16.058;2024-03-07T11:43:38;5.40;;;3.53;;
49514;SDS011;35415;47.870;16.058;2024-03-07T11:46:07;6.50;;;4.57;;
49514;SDS011;35415;47.870;16.058;2024-03-07T11:48:38;10.25;;;4.82;;
49514;SDS011;35415;47.870;16.058;2024-03-07T11:51:08;10.77;;;5.68;;
49514;SDS011;35415;47.870;16.058;2024-03-07T11:53:38;9.93;;;5.32;;
49514;SDS011;35415;47.870;16.058;2024-03-07T11:56:06;8.50;;;5.25;;
49514;SDS011;35415;47.870;16.058;2024-03-07T11:58:41;12.60;;;5.78;;
49514;SDS011;35415;47.870;16.058;2024-03-07T12:01:10;11.93;;;5.93;;
49514;SDS011;35415;47.870;16.058;2024-03-07T12:03:39;9.60;;;5.05;;
49514;SDS011;35415;47.870;16.058;2024-03-07T12:06:22;9.25;;;5.70;;
49514;SDS011;35415;47.870;16.058;2024-03-07T12:08:50;9.90;;;5.95;;
49514;SDS011;35415;47.870;16.058;2024-03-07T12:11:18;9.07;;;5.63;;
49514;SDS011;35415;47.870;16.058;2024-03-07T12:13:46;9.10;;;5.40;;
49514;SDS011;35415;47.870;16.058;2024-03-07T12:16:13;9.20;;;5.57;;
49514;SDS011;35415;47.870;16.058;2024-03-07T12:18:41;9.57;;;5.10;;
49514;SDS011;35415;47.870;16.058;2024-03-07T12:21:09;8.98;;;5.32;;
49514;SDS011;35415;47.870;16.058;2024-03-07T12:23:39;9.48;;;5.47;;
49514;SDS011;35415;47.870;16.058;2024-03-07T12:26:06;8.75;;;5.22;;
49514;SDS011;35415;47.870;16.058;2024-03-07T12:28:36;10.93;;;5.40;;
49514;SDS011;35415;47.870;16.058;2024-03-07T12:31:03;9.55;;;5.55;;
49514;SDS011;35415;47.870;16.058;2024-03-07T12:33:40;9.90;;;5.90;;
49514;SDS011;35415;47.870;16.058;2024-03-07T12:36:12;9.35;;;5.47;;
49514;SDS011;35415;47.870;16.058;2024-03-07T12:38:42;12.48;;;6.30;;
49514;SDS011;35415;47.870;16.058;2024-03-07T12:41:10;10.57;;;6.07;;
49514;SDS011;35415;47.870;16.058;2024-03-07T12:43:40;10.70;;;6.22;;
49514;SDS011;35415;47.870;16.058;2024-03-07T12:46:10;10.85;;;6.53;;
49514;SDS011;35415;47.870;16.058;2024-03-07T12:48:39;11.18;;;7.10;;
49514;SDS011;35415;47.870;16.058;2024-03-07T12:51:06;9.80;;;6.20;;
49514;SDS011;35415;47.870;16.058;2024-03-07T12:53:34;12.57;;;6.35;;
49514;SDS011;35415;47.870;16.058;2024-03-07T12:56:05;9.98;;;6.53;;
49514;SDS011;35415;47.870;16.058;2024-03-07T12:58:34;10.35;;;6.63;;
49514;SDS011;35415;47.870;16.058;2024-03-07T13:01:01;14.00;;;6.82;;
49514;SDS011;35415;47.870;16.058;2024-03-07T13:03:29;10.63;;;5.45;;
49514;SDS011;35415;47.870;16.058;2024-03-07T13:05:56;11.63;;;6.95;;
49514;SDS011;35415;47.870;16.058;2024-03-07T13:08:26;11.23;;;5.85;;
49514;SDS011;35415;47.870;16.058;2024-03-07T13:10:54;9.85;;;5.78;;
49514;SDS011;35415;47.870;16.058;2024-03-07T13:13:25;10.85;;;5.97;;
49514;SDS011;35415;47.870;16.058;2024-03-07T13:15:52;10.07;;;5.60;;
49514;SDS011;35415;47.870;16.058;2024-03-07T13:18:21;11.43;;;5.60;;
49514;SDS011;35415;47.870;16.058;2024-03-07T13:20:48;12.15;;;5.95;;
49514;SDS011;35415;47.870;16.058;2024-03-07T13:23:15;9.05;;;5.85;;
49514;SDS011;35415;47.870;16.058;2024-03-07T13:25:43;11.38;;;5.55;;
49514;SDS011;35415;47.870;16.058;2024-03-07T13:28:11;8.40;;;5.38;;
49514;SDS011;35415;47.870;16.058;2024-03-07T13:30:43;11.10;;;5.50;;
49514;SDS011;35415;47.870;16.058;2024-03-07T13:33:13;8.43;;;5.18;;
49514;SDS011;35415;47.870;16.058;2024-03-07T13:35:41;9.07;;;5.90;;
49514;SDS011;35415;47.870;16.058;2024-03-07T13:38:08;10.25;;;5.70;;
49514;SDS011;35415;47.870;16.058;2024-03-07T13:40:35;11.68;;;6.20;;
49514;SDS011;35415;47.870;16.058;2024-03-07T13:43:04;11.73;;;5.93;;
49514;SDS011;35415;47.870;16.058;2024-03-07T13:45:32;11.50;;;6.07;;
49514;SDS011;35415;47.870;16.058;2024-03-07T13:48:06;9.98;;;6.07;;
49514;SDS011;35415;47.870;16.058;2024-03-07T13:50:35;13.18;;;6.65;;
49514;SDS011;35415;47.870;16.058;2024-03-07T13:53:06;12.38;;;7.22;;
49514;SDS011;35415;47.870;16.058;2024-03-07T13:55:50;11.07;;;6.90;;
49514;SDS011;35415;47.870;16.058;2024-03-07T13:58:34;11.57;;;6.80;;
49514;SDS011;35415;47.870;16.058;2024-03-07T14:01:14;13.57;;;7.75;;
49514;SDS011;35415;47.870;16.058;2024-03-07T14:07:14;12.77;;;7.60;;
49514;SDS011;35415;47.870;16.058;2024-03-07T14:10:03;14.88;;;7.70;;
49514;SDS011;35415;47.870;16.058;2024-03-07T14:12:58;14.68;;;8.18;;
49514;SDS011;35415;47.870;16.058;2024-03-07T14:15:57;13.30;;;7.57;;
49514;SDS011;35415;47.870;16.058;2024-03-07T14:22:07;15.90;;;7.47;;
49514;SDS011;35415;47.870;16.058;2024-03-07T14:28:05;16.17;;;7.93;;
49514;SDS011;35415;47.870;16.058;2024-03-07T14:30:44;15.48;;;8.07;;
49514;SDS011;35415;47.870;16.058;2024-03-07T14:33:19;17.80;;;8.57;;
49514;SDS011;35415;47.870;16.058;2024-03-07T14:35:59;15.65;;;8.35;;
49514;SDS011;35415;47.870;16.058;2024-03-07T14:38:39;17.90;;;8.50;;
49514;SDS011;35415;47.870;16.058;2024-03-07T14:41:12;14.95;;;7.78;;
49514;SDS011;35415;47.870;16.058;2024-03-07T14:43:40;12.13;;;6.85;;
49514;SDS011;35415;47.870;16.058;2024-03-07T14:46:08;15.23;;;8.20;;
49514;SDS011;35415;47.870;16.058;2024-03-07T14:48:37;16.73;;;7.90;;